sensor_id;sensor_type;location;lat;lon;timestamp;P1;durP1;ratioP1;P2;durP2;ratioP2
2750;SDS011;1383;48.362;10.908;2023-04-05T00:02:21;7.03;;;6.40;;
2750;SDS011;1383;48.362;10.908;2023-04-05T00:04:50;7.90;;;6.78;;
2750;SDS011;1383;48.362;10.908;2023-04-05T00:07:20;11.93;;;6.70;;
2750;SDS011;1383;48.362;10.908;2023-04-05T00:09:47;9.07;;;7.60;;
2750;SDS011;1383;48.362;10.908;2023-04-05T00:12:14;12.18;;;7.68;;
2750;SDS011;1383;48.362;10.908;2023-04-05T00:14:41;7.47;;;6.88;;
2750;SDS011;1383;48.362;10.908;2023-04-05T00:17:08;11.90;;;7.82;;
2750;SDS011;1383;48.362;10.908;2023-04-05T00:19:37;10.20;;;6.70;;
2750;SDS011;1383;48.362;10.908;2023-04-05T00:22:04;11.90;;;6.18;;
2750;SDS011;1383;48.362;10.908;2023-04-05T00:24:31;7.63;;;6.82;;
2750;SDS011;1383;48.362;10.908;2023-04-05T00:26:59;8.15;;;6.85;;
2750;SDS011;1383;48.362;10.908;2023-04-05T00:29:26;8.68;;;6.78;;
2750;SDS011;1383;48.362;10.908;2023-04-05T00:31:53;12.30;;;7.53;;
2750;SDS011;1383;48.362;10.908;2023-04-05T00:34:21;8.52;;;7.20;;
2750;SDS011;1383;48.362;10.908;2023-04-05T00:36:48;8.30;;;7.50;;
2750;SDS011;1383;48.362;10.908;2023-04-05T00:39:14;8.48;;;7.18;;
2750;SDS011;1383;48.362;10.908;2023-04-05T00:41:41;9.82;;;8.20;;
2750;SDS011;1383;48.362;10.908;2023-04-05T00:44:12;9.98;;;7.28;;
2750;SDS011;1383;48.362;10.908;2023-04-05T00:46:40;9.52;;;8.30;;
2750;SDS011;1383;48.362;10.908;2023-04-05T00:49:07;7.97;;;7.28;;
2750;SDS011;1383;48.362;10.908;2023-04-05T00:51:34;9.98;;;8.27;;
2750;SDS011;1383;48.362;10.908;2023-04-05T00:54:03;9.77;;;7.57;;
2750;SDS011;1383;48.362;10.908;2023-04-05T00:56:30;8.00;;;7.05;;
2750;SDS011;1383;48.362;10.908;2023-04-05T00:58:57;11.15;;;8.27;;
2750;SDS011;1383;48.362;10.908;2023-04-05T01:01:25;10.20;;;8.45;;
2750;SDS011;1383;48.362;10.908;2023-04-05T01:03:59;7.97;;;7.22;;
2750;SDS011;1383;48.362;10.908;2023-04-05T01:12:00;8.70;;;7.90;;
2750;SDS011;1383;48.362;10.908;2023-04-05T01:14:42;8.10;;;6.55;;
2750;SDS011;1383;48.362;10.908;2023-04-05T01:17:16;7.57;;;6.82;;
2750;SDS011;1383;48.362;10.908;2023-04-05T01:19:51;6.47;;;5.88;;
2750;SDS011;1383;48.362;10.908;2023-04-05T01:30:25;11.88;;;7.28;;
2750;SDS011;1383;48.362;10.908;2023-04-05T01:38:02;8.27;;;6.60;;
2750;SDS011;1383;48.362;10.908;2023-04-05T01:40:29;8.73;;;6.63;;
2750;SDS011;1383;48.362;10.908;2023-04-05T01:42:59;7.68;;;6.90;;
2750;SDS011;1383;48.362;10.908;2023-04-05T01:45:27;7.78;;;7.03;;
2750;SDS011;1383;48.362;10.908;2023-04-05T01:47:54;7.63;;;6.93;;
2750;SDS011;1383;48.362;10.908;2023-04-05T01:50:21;10.30;;;7.75;;
2750;SDS011;1383;48.362;10.908;2023-04-05T01:52:48;7.75;;;6.88;;
2750;SDS011;1383;48.362;10.908;2023-04-05T01:55:14;11.15;;;7.85;;
2750;SDS011;1383;48.362;10.908;2023-04-05T01:57:41;9.50;;;7.38;;
2750;SDS011;1383;48.362;10.908;2023-04-05T02:00:08;8.63;;;7.82;;
2750;SDS011;1383;48.362;10.908;2023-04-05T02:02:36;8.60;;;7.10;;
2750;SDS011;1383;48.362;10.908;2023-04-05T02:05:03;10.80;;;7.93;;
2750;SDS011;1383;48.362;10.908;2023-04-05T02:07:30;8.30;;;7.47;;
2750;SDS011;1383;48.362;10.908;2023-04-05T02:09:56;13.35;;;8.70;;
2750;SDS011;1383;48.362;10.908;2023-04-05T02:12:23;11.23;;;7.95;;
2750;SDS011;1383;48.362;10.908;2023-04-05T02:14:50;7.45;;;6.75;;
2750;SDS011;1383;48.362;10.908;2023-04-05T02:17:17;9.73;;;7.50;;
2750;SDS011;1383;48.362;10.908;2023-04-05T02:19:44;12.35;;;7.80;;
2750;SDS011;1383;48.362;10.908;2023-04-05T02:22:12;8.15;;;6.93;;
2750;SDS011;1383;48.362;10.908;2023-04-05T02:24:40;11.32;;;8.38;;
2750;SDS011;1383;48.362;10.908;2023-04-05T02:27:07;10.90;;;6.80;;
2750;SDS011;1383;48.362;10.908;2023-04-05T02:29:33;7.50;;;6.70;;
2750;SDS011;1383;48.362;10.908;2023-04-05T02:32:00;10.18;;;7.38;;
2750;SDS011;1383;48.362;10.908;2023-04-05T02:34:27;7.25;;;6.65;;
2750;SDS011;1383;48.362;10.908;2023-04-05T02:36:54;10.57;;;7.95;;
2750;SDS011;1383;48.362;10.908;2023-04-05T02:39:22;10.13;;;8.75;;
2750;SDS011;1383;48.362;10.908;2023-04-05T02:41:48;8.98;;;8.05;;
2750;SDS011;1383;48.362;10.908;2023-04-05T02:44:15;11.43;;;7.78;;
2750;SDS011;1383;48.362;10.908;2023-04-05T02:46:42;8.30;;;7.60;;
2750;SDS011;1383;48.362;10.908;2023-04-05T02:49:09;9.23;;;8.43;;
2750;SDS011;1383;48.362;10.908;2023-04-05T02:51:36;10.15;;;8.70;;
2750;SDS011;1383;48.362;10.908;2023-04-05T02:54:03;10.35;;;9.35;;
2750;SDS011;1383;48.362;10.908;2023-04-05T02:56:30;9.55;;;8.48;;
2750;SDS011;1383;48.362;10.908;2023-04-05T02:58:57;11.40;;;9.73;;
2750;SDS011;1383;48.362;10.908;2023-04-05T03:01:24;9.00;;;8.05;;
2750;SDS011;1383;48.362;10.908;2023-04-05T03:03:51;11.57;;;8.10;;
2750;SDS011;1383;48.362;10.908;2023-04-05T03:06:18;9.38;;;8.40;;
2750;SDS011;1383;48.362;10.908;2023-04-05T03:08:46;10.40;;;8.43;;
2750;SDS011;1383;48.362;10.908;2023-04-05T03:11:14;9.95;;;8.95;;
2750;SDS011;1383;48.362;10.908;2023-04-05T03:13:41;9.02;;;8.13;;
2750;SDS011;1383;48.362;10.908;2023-04-05T03:16:08;8.13;;;7.25;;
2750;SDS011;1383;48.362;10.908;2023-04-05T03:18:35;11.05;;;8.40;;
2750;SDS011;1383;48.362;10.908;2023-04-05T03:21:02;8.40;;;7.60;;
2750;SDS011;1383;48.362;10.908;2023-04-05T03:23:30;9.57;;;8.32;;
2750;SDS011;1383;48.362;10.908;2023-04-05T03:25:58;8.88;;;7.97;;
2750;SDS011;1383;48.362;10.908;2023-04-05T03:28:26;10.23;;;9.23;;
2750;SDS011;1383;48.362;10.908;2023-04-05T03:30:54;17.10;;;9.73;;
2750;SDS011;1383;48.362;10.908;2023-04-05T03:33:22;10.05;;;8.30;;
2750;SDS011;1383;48.362;10.908;2023-04-05T03:35:49;10.45;;;9.02;;
2750;SDS011;1383;48.362;10.908;2023-04-05T03:38:16;8.82;;;8.02;;
2750;SDS011;1383;48.362;10.908;2023-04-05T03:40:43;10.65;;;8.98;;
2750;SDS011;1383;48.362;10.908;2023-04-05T03:43:09;9.20;;;8.25;;
2750;SDS011;1383;48.362;10.908;2023-04-05T03:45:36;8.93;;;8.13;;
2750;SDS011;1383;48.362;10.908;2023-04-05T03:48:03;8.65;;;7.78;;
2750;SDS011;1383;48.362;10.908;2023-04-05T03:50:31;10.02;;;8.88;;
2750;SDS011;1383;48.362;10.908;2023-04-05T03:52:57;9.30;;;8.35;;
2750;SDS011;1383;48.362;10.908;2023-04-05T03:55:24;9.60;;;7.45;;
2750;SDS011;1383;48.362;10.908;2023-04-05T03:57:51;9.43;;;8.52;;
2750;SDS011;1383;48.362;10.908;2023-04-05T04:00:19;8.52;;;7.68;;
2750;SDS011;1383;48.362;10.908;2023-04-05T04:02:46;9.50;;;8.60;;
2750;SDS011;1383;48.362;10.908;2023-04-05T04:05:14;9.43;;;8.35;;
2750;SDS011;1383;48.362;10.908;2023-04-05T04:07:42;8.07;;;7.13;;
2750;SDS011;1383;48.362;10.908;2023-04-05T04:10:10;9.27;;;8.48;;
2750;SDS011;1383;48.362;10.908;2023-04-05T04:12:39;8.98;;;7.72;;
2750;SDS011;1383;48.362;10.908;2023-04-05T04:15:06;8.73;;;7.95;;
2750;SDS011;1383;48.362;10.908;2023-04-05T04:17:34;12.90;;;8.40;;
2750;SDS011;1383;48.362;10.908;2023-04-05T04:20:05;9.07;;;7.55;;
2750;SDS011;1383;48.362;10.908;2023-04-05T04:22:37;9.80;;;7.55;;
2750;SDS011;1383;48.362;10.908;2023-04-05T04:25:09;8.93;;;8.07;;
2750;SDS011;1383;48.362;10.908;2023-04-05T04:27:38;8.55;;;7.63;;
2750;SDS011;1383;48.362;10.908;2023-04-05T04:30:10;10.05;;;7.53;;
2750;SDS011;1383;48.362;10.908;2023-04-05T04:32:39;8.93;;;8.13;;
2750;SDS011;1383;48.362;10.908;2023-04-05T04:35:21;9.80;;;8.23;;
2750;SDS011;1383;48.362;10.908;2023-04-05T04:37:57;10.90;;;8.85;;
2750;SDS011;1383;48.362;10.908;2023-04-05T04:40:28;12.88;;;8.07;;
2750;SDS011;1383;48.362;10.908;2023-04-05T04:43:08;14.88;;;8.45;;
2750;SDS011;1383;48.362;10.908;2023-04-05T04:45:39;9.00;;;7.20;;
2750;SDS011;1383;48.362;10.908;2023-04-05T04:48:07;8.70;;;7.93;;
2750;SDS011;1383;48.362;10.908;2023-04-05T04:50:35;8.13;;;7.28;;
2750;SDS011;1383;48.362;10.908;2023-04-05T04:53:03;9.38;;;8.45;;
2750;SDS011;1383;48.362;10.908;2023-04-05T04:55:29;9.45;;;8.55;;
2750;SDS011;1383;48.362;10.908;2023-04-05T04:57:58;11.30;;;10.10;;
2750;SDS011;1383;48.362;10.908;2023-04-05T05:00:25;10.73;;;7.82;;
2750;SDS011;1383;48.362;10.908;2023-04-05T05:02:52;17.15;;;8.23;;
2750;SDS011;1383;48.362;10.908;2023-04-05T05:05:21;8.50;;;7.65;;
2750;SDS011;1383;48.362;10.908;2023-04-05T05:07:48;10.57;;;9.43;;
2750;SDS011;1383;48.362;10.908;2023-04-05T05:10:16;11.07;;;8.00;;
2750;SDS011;1383;48.362;10.908;2023-04-05T05:12:44;10.90;;;8.25;;
2750;SDS011;1383;48.362;10.908;2023-04-05T05:15:11;11.65;;;8.20;;
2750;SDS011;1383;48.362;10.908;2023-04-05T05:17:38;9.70;;;8.80;;
2750;SDS011;1383;48.362;10.908;2023-04-05T05:20:05;10.90;;;8.27;;
2750;SDS011;1383;48.362;10.908;2023-04-05T05:22:36;9.70;;;8.02;;
2750;SDS011;1383;48.362;10.908;2023-04-05T05:25:04;9.85;;;8.85;;
2750;SDS011;1383;48.362;10.908;2023-04-05T05:27:32;10.55;;;8.25;;
2750;SDS011;1383;48.362;10.908;2023-04-05T05:30:02;10.07;;;8.00;;
2750;SDS011;1383;48.362;10.908;2023-04-05T05:32:30;9.68;;;8.77;;
2750;SDS011;1383;48.362;10.908;2023-04-05T05:34:56;11.00;;;8.63;;
2750;SDS011;1383;48.362;10.908;2023-04-05T05:37:30;8.98;;;8.07;;
2750;SDS011;1383;48.362;10.908;2023-04-05T05:39:58;13.70;;;8.60;;
2750;SDS011;1383;48.362;10.908;2023-04-05T05:42:25;9.02;;;7.63;;
2750;SDS011;1383;48.362;10.908;2023-04-05T05:44:55;9.25;;;7.80;;
2750;SDS011;1383;48.362;10.908;2023-04-05T05:47:21;12.05;;;8.32;;
2750;SDS011;1383;48.362;10.908;2023-04-05T05:49:48;10.60;;;7.28;;
2750;SDS011;1383;48.362;10.908;2023-04-05T05:52:15;9.25;;;8.05;;
2750;SDS011;1383;48.362;10.908;2023-04-05T05:54:42;8.50;;;7.68;;
2750;SDS011;1383;48.362;10.908;2023-04-05T05:57:09;9.13;;;8.23;;
2750;SDS011;1383;48.362;10.908;2023-04-05T05:59:36;11.50;;;7.30;;
2750;SDS011;1383;48.362;10.908;2023-04-05T06:02:03;8.63;;;7.40;;
2750;SDS011;1383;48.362;10.908;2023-04-05T06:04:29;9.40;;;8.40;;
2750;SDS011;1383;48.362;10.908;2023-04-05T06:06:56;9.15;;;8.25;;
2750;SDS011;1383;48.362;10.908;2023-04-05T06:09:24;9.55;;;7.25;;
2750;SDS011;1383;48.362;10.908;2023-04-05T06:11:51;10.25;;;8.32;;
2750;SDS011;1383;48.362;10.908;2023-04-05T06:14:22;8.63;;;7.70;;
2750;SDS011;1383;48.362;10.908;2023-04-05T06:16:50;10.73;;;6.80;;
2750;SDS011;1383;48.362;10.908;2023-04-05T06:19:17;8.48;;;6.55;;
2750;SDS011;1383;48.362;10.908;2023-04-05T06:21:44;9.82;;;7.85;;
2750;SDS011;1383;48.362;10.908;2023-04-05T06:24:11;8.30;;;7.38;;
2750;SDS011;1383;48.362;10.908;2023-04-05T06:26:38;10.07;;;7.50;;
2750;SDS011;1383;48.362;10.908;2023-04-05T06:29:05;10.48;;;8.70;;
2750;SDS011;1383;48.362;10.908;2023-04-05T06:31:32;9.80;;;6.78;;
2750;SDS011;1383;48.362;10.908;2023-04-05T06:34:01;9.77;;;7.53;;
2750;SDS011;1383;48.362;10.908;2023-04-05T06:36:30;9.85;;;7.70;;
2750;SDS011;1383;48.362;10.908;2023-04-05T06:38:59;8.20;;;7.35;;
2750;SDS011;1383;48.362;10.908;2023-04-05T06:41:26;8.98;;;6.90;;
2750;SDS011;1383;48.362;10.908;2023-04-05T06:43:53;5.60;;;5.07;;
2750;SDS011;1383;48.362;10.908;2023-04-05T06:46:21;6.95;;;6.25;;
2750;SDS011;1383;48.362;10.908;2023-04-05T06:48:48;6.47;;;5.80;;
2750;SDS011;1383;48.362;10.908;2023-04-05T06:51:16;7.00;;;6.22;;
2750;SDS011;1383;48.362;10.908;2023-04-05T06:53:43;5.60;;;5.10;;
2750;SDS011;1383;48.362;10.908;2023-04-05T06:56:10;7.32;;;6.53;;
2750;SDS011;1383;48.362;10.908;2023-04-05T06:58:37;6.60;;;6.00;;
2750;SDS011;1383;48.362;10.908;2023-04-05T07:01:04;6.65;;;5.72;;
2750;SDS011;1383;48.362;10.908;2023-04-05T07:03:31;7.15;;;6.40;;
2750;SDS011;1383;48.362;10.908;2023-04-05T07:05:59;8.13;;;6.75;;
2750;SDS011;1383;48.362;10.908;2023-04-05T07:08:26;9.35;;;6.68;;
2750;SDS011;1383;48.362;10.908;2023-04-05T07:10:54;8.07;;;5.82;;
2750;SDS011;1383;48.362;10.908;2023-04-05T07:13:22;8.45;;;6.15;;
2750;SDS011;1383;48.362;10.908;2023-04-05T07:15:50;9.77;;;5.55;;
2750;SDS011;1383;48.362;10.908;2023-04-05T07:18:18;6.25;;;5.30;;
2750;SDS011;1383;48.362;10.908;2023-04-05T07:20:46;11.55;;;4.78;;
2750;SDS011;1383;48.362;10.908;2023-04-05T07:23:17;6.97;;;6.28;;
2750;SDS011;1383;48.362;10.908;2023-04-05T07:25:46;6.15;;;4.95;;
2750;SDS011;1383;48.362;10.908;2023-04-05T07:28:13;4.63;;;4.22;;
2750;SDS011;1383;48.362;10.908;2023-04-05T07:30:40;5.55;;;4.90;;
2750;SDS011;1383;48.362;10.908;2023-04-05T07:33:07;6.40;;;4.07;;
2750;SDS011;1383;48.362;10.908;2023-04-05T07:35:34;7.32;;;4.40;;
2750;SDS011;1383;48.362;10.908;2023-04-05T07:38:00;5.03;;;4.63;;
2750;SDS011;1383;48.362;10.908;2023-04-05T07:40:27;5.32;;;4.25;;
2750;SDS011;1383;48.362;10.908;2023-04-05T07:42:54;6.43;;;5.85;;
2750;SDS011;1383;48.362;10.908;2023-04-05T07:45:21;6.55;;;4.90;;
2750;SDS011;1383;48.362;10.908;2023-04-05T07:47:48;6.15;;;5.55;;
2750;SDS011;1383;48.362;10.908;2023-04-05T07:50:15;5.05;;;3.70;;
2750;SDS011;1383;48.362;10.908;2023-04-05T07:52:42;7.70;;;4.65;;
2750;SDS011;1383;48.362;10.908;2023-04-05T07:55:09;6.43;;;5.82;;
2750;SDS011;1383;48.362;10.908;2023-04-05T07:57:36;6.95;;;5.05;;
2750;SDS011;1383;48.362;10.908;2023-04-05T08:00:03;6.40;;;5.20;;
2750;SDS011;1383;48.362;10.908;2023-04-05T08:02:36;5.05;;;4.47;;
2750;SDS011;1383;48.362;10.908;2023-04-05T08:05:03;7.03;;;5.43;;
2750;SDS011;1383;48.362;10.908;2023-04-05T08:07:31;5.60;;;4.93;;
2750;SDS011;1383;48.362;10.908;2023-04-05T08:09:57;6.43;;;5.10;;
2750;SDS011;1383;48.362;10.908;2023-04-05T08:12:25;7.03;;;4.95;;
2750;SDS011;1383;48.362;10.908;2023-04-05T08:14:52;5.30;;;4.80;;
2750;SDS011;1383;48.362;10.908;2023-04-05T08:17:19;6.18;;;5.28;;
2750;SDS011;1383;48.362;10.908;2023-04-05T08:19:46;6.22;;;5.70;;
2750;SDS011;1383;48.362;10.908;2023-04-05T08:22:14;5.73;;;4.97;;
2750;SDS011;1383;48.362;10.908;2023-04-05T08:24:43;7.10;;;4.80;;
2750;SDS011;1383;48.362;10.908;2023-04-05T08:27:10;5.53;;;5.03;;
2750;SDS011;1383;48.362;10.908;2023-04-05T08:29:37;6.00;;;5.40;;
2750;SDS011;1383;48.362;10.908;2023-04-05T08:32:04;6.17;;;5.07;;
2750;SDS011;1383;48.362;10.908;2023-04-05T08:34:31;5.50;;;4.93;;
2750;SDS011;1383;48.362;10.908;2023-04-05T08:36:58;4.63;;;4.07;;
2750;SDS011;1383;48.362;10.908;2023-04-05T08:39:25;5.40;;;4.70;;
2750;SDS011;1383;48.362;10.908;2023-04-05T08:44:41;4.53;;;3.80;;
2750;SDS011;1383;48.362;10.908;2023-04-05T08:47:11;6.60;;;4.93;;
2750;SDS011;1383;48.362;10.908;2023-04-05T08:49:44;4.20;;;3.80;;
2750;SDS011;1383;48.362;10.908;2023-04-05T08:52:11;5.13;;;4.72;;
2750;SDS011;1383;48.362;10.908;2023-04-05T08:54:38;5.73;;;4.70;;
2750;SDS011;1383;48.362;10.908;2023-04-05T08:57:06;5.53;;;5.03;;
2750;SDS011;1383;48.362;10.908;2023-04-05T08:59:35;5.55;;;5.05;;
2750;SDS011;1383;48.362;10.908;2023-04-05T09:02:05;5.90;;;5.23;;
2750;SDS011;1383;48.362;10.908;2023-04-05T09:04:38;6.67;;;4.57;;
2750;SDS011;1383;48.362;10.908;2023-04-05T09:07:11;6.13;;;5.32;;
2750;SDS011;1383;48.362;10.908;2023-04-05T09:09:41;4.63;;;4.05;;
2750;SDS011;1383;48.362;10.908;2023-04-05T09:12:11;7.80;;;4.63;;
2750;SDS011;1383;48.362;10.908;2023-04-05T09:14:39;5.23;;;4.70;;
2750;SDS011;1383;48.362;10.908;2023-04-05T09:17:07;6.30;;;4.93;;
2750;SDS011;1383;48.362;10.908;2023-04-05T09:19:34;5.27;;;4.67;;
2750;SDS011;1383;48.362;10.908;2023-04-05T09:22:02;5.97;;;5.20;;
2750;SDS011;1383;48.362;10.908;2023-04-05T09:27:10;8.00;;;5.20;;
2750;SDS011;1383;48.362;10.908;2023-04-05T09:29:41;7.95;;;6.82;;
2750;SDS011;1383;48.362;10.908;2023-04-05T09:32:13;7.57;;;5.03;;
2750;SDS011;1383;48.362;10.908;2023-04-05T09:34:41;7.10;;;4.50;;
2750;SDS011;1383;48.362;10.908;2023-04-05T09:37:15;4.97;;;3.90;;
2750;SDS011;1383;48.362;10.908;2023-04-05T09:39:42;4.20;;;3.80;;
2750;SDS011;1383;48.362;10.908;2023-04-05T09:42:11;5.10;;;4.60;;
2750;SDS011;1383;48.362;10.908;2023-04-05T09:47:20;4.90;;;4.50;;
2750;SDS011;1383;48.362;10.908;2023-04-05T09:49:48;5.67;;;5.10;;
2750;SDS011;1383;48.362;10.908;2023-04-05T09:54:50;4.93;;;4.40;;
2750;SDS011;1383;48.362;10.908;2023-04-05T09:57:20;5.03;;;4.50;;
2750;SDS011;1383;48.362;10.908;2023-04-05T09:59:48;5.30;;;4.80;;
2750;SDS011;1383;48.362;10.908;2023-04-05T10:02:15;6.20;;;5.40;;
2750;SDS011;1383;48.362;10.908;2023-04-05T10:04:43;6.07;;;5.40;;
2750;SDS011;1383;48.362;10.908;2023-04-05T10:07:12;8.90;;;4.80;;
2750;SDS011;1383;48.362;10.908;2023-04-05T10:09:40;4.67;;;4.27;;
2750;SDS011;1383;48.362;10.908;2023-04-05T10:12:09;10.60;;;5.30;;
2750;SDS011;1383;48.362;10.908;2023-04-05T10:14:40;7.47;;;4.60;;
2750;SDS011;1383;48.362;10.908;2023-04-05T10:17:08;4.27;;;3.87;;
2750;SDS011;1383;48.362;10.908;2023-04-05T10:19:52;5.63;;;5.17;;
2750;SDS011;1383;48.362;10.908;2023-04-05T10:22:43;7.83;;;5.80;;
2750;SDS011;1383;48.362;10.908;2023-04-05T10:27:53;6.20;;;5.18;;
2750;SDS011;1383;48.362;10.908;2023-04-05T10:30:23;7.13;;;6.40;;
2750;SDS011;1383;48.362;10.908;2023-04-05T10:38:27;5.20;;;3.53;;
2750;SDS011;1383;48.362;10.908;2023-04-05T10:41:04;16.80;;;12.83;;
2750;SDS011;1383;48.362;10.908;2023-04-05T10:43:36;6.00;;;5.50;;
2750;SDS011;1383;48.362;10.908;2023-04-05T10:46:06;6.70;;;4.53;;
2750;SDS011;1383;48.362;10.908;2023-04-05T10:48:45;6.67;;;5.13;;
2750;SDS011;1383;48.362;10.908;2023-04-05T10:51:19;7.30;;;5.40;;
2750;SDS011;1383;48.362;10.908;2023-04-05T10:53:49;5.27;;;4.73;;
2750;SDS011;1383;48.362;10.908;2023-04-05T10:56:17;5.57;;;4.80;;
2750;SDS011;1383;48.362;10.908;2023-04-05T10:58:45;7.00;;;5.13;;
2750;SDS011;1383;48.362;10.908;2023-04-05T11:01:14;8.00;;;5.47;;
2750;SDS011;1383;48.362;10.908;2023-04-05T11:03:49;9.00;;;5.00;;
2750;SDS011;1383;48.362;10.908;2023-04-05T11:08:54;7.87;;;6.57;;
2750;SDS011;1383;48.362;10.908;2023-04-05T11:11:26;10.43;;;8.43;;
2750;SDS011;1383;48.362;10.908;2023-04-05T11:14:04;5.70;;;4.00;;
2750;SDS011;1383;48.362;10.908;2023-04-05T11:16:45;7.80;;;4.93;;
2750;SDS011;1383;48.362;10.908;2023-04-05T11:22:10;5.85;;;5.18;;
2750;SDS011;1383;48.362;10.908;2023-04-05T11:25:12;6.47;;;5.10;;
2750;SDS011;1383;48.362;10.908;2023-04-05T11:27:32;7.50;;;5.87;;
2750;SDS011;1383;48.362;10.908;2023-04-05T11:30:03;5.50;;;5.00;;
2750;SDS011;1383;48.362;10.908;2023-04-05T11:32:43;7.95;;;5.22;;
2750;SDS011;1383;48.362;10.908;2023-04-05T11:35:12;5.50;;;4.75;;
2750;SDS011;1383;48.362;10.908;2023-04-05T11:43:05;4.80;;;4.37;;
2750;SDS011;1383;48.362;10.908;2023-04-05T11:45:35;8.70;;;4.95;;
2750;SDS011;1383;48.362;10.908;2023-04-05T11:48:12;5.63;;;5.07;;
2750;SDS011;1383;48.362;10.908;2023-04-05T11:50:40;5.37;;;3.87;;
2750;SDS011;1383;48.362;10.908;2023-04-05T11:53:12;5.40;;;4.87;;
2750;SDS011;1383;48.362;10.908;2023-04-05T11:55:41;5.13;;;4.63;;
2750;SDS011;1383;48.362;10.908;2023-04-05T11:58:22;7.55;;;5.10;;
2750;SDS011;1383;48.362;10.908;2023-04-05T12:00:56;5.80;;;5.30;;
2750;SDS011;1383;48.362;10.908;2023-04-05T12:03:28;5.57;;;4.47;;
2750;SDS011;1383;48.362;10.908;2023-04-05T12:05:59;5.80;;;5.30;;
2750;SDS011;1383;48.362;10.908;2023-04-05T12:11:30;6.30;;;5.70;;
2750;SDS011;1383;48.362;10.908;2023-04-05T12:14:00;5.83;;;5.10;;
2750;SDS011;1383;48.362;10.908;2023-04-05T12:16:28;4.73;;;4.23;;
2750;SDS011;1383;48.362;10.908;2023-04-05T12:18:55;6.13;;;4.40;;
2750;SDS011;1383;48.362;10.908;2023-04-05T12:21:23;18.50;;;13.07;;
2750;SDS011;1383;48.362;10.908;2023-04-05T12:23:51;4.70;;;4.40;;
2750;SDS011;1383;48.362;10.908;2023-04-05T12:26:19;6.22;;;5.05;;
2750;SDS011;1383;48.362;10.908;2023-04-05T12:28:54;4.90;;;4.50;;
2750;SDS011;1383;48.362;10.908;2023-04-05T12:31:41;7.73;;;5.70;;
2750;SDS011;1383;48.362;10.908;2023-04-05T12:34:10;4.97;;;4.50;;
2750;SDS011;1383;48.362;10.908;2023-04-05T12:36:38;6.03;;;5.43;;
2750;SDS011;1383;48.362;10.908;2023-04-05T12:39:09;7.43;;;5.27;;
2750;SDS011;1383;48.362;10.908;2023-04-05T12:41:36;5.40;;;4.90;;
2750;SDS011;1383;48.362;10.908;2023-04-05T12:44:04;5.10;;;4.70;;
2750;SDS011;1383;48.362;10.908;2023-04-05T12:46:39;5.80;;;5.30;;
2750;SDS011;1383;48.362;10.908;2023-04-05T12:49:16;5.30;;;4.80;;
2750;SDS011;1383;48.362;10.908;2023-04-05T12:51:44;5.17;;;4.27;;
2750;SDS011;1383;48.362;10.908;2023-04-05T12:54:12;6.33;;;5.73;;
2750;SDS011;1383;48.362;10.908;2023-04-05T12:56:40;6.77;;;4.63;;
2750;SDS011;1383;48.362;10.908;2023-04-05T12:59:07;7.23;;;4.87;;
2750;SDS011;1383;48.362;10.908;2023-04-05T13:01:34;5.53;;;4.80;;
2750;SDS011;1383;48.362;10.908;2023-04-05T13:04:01;5.78;;;5.18;;
2750;SDS011;1383;48.362;10.908;2023-04-05T13:06:41;7.00;;;5.17;;
2750;SDS011;1383;48.362;10.908;2023-04-05T13:09:09;4.60;;;4.20;;
2750;SDS011;1383;48.362;10.908;2023-04-05T13:11:36;8.20;;;5.97;;
2750;SDS011;1383;48.362;10.908;2023-04-05T13:14:03;6.10;;;5.50;;
2750;SDS011;1383;48.362;10.908;2023-04-05T13:16:30;7.53;;;6.10;;
2750;SDS011;1383;48.362;10.908;2023-04-05T13:18:57;13.27;;;6.40;;
2750;SDS011;1383;48.362;10.908;2023-04-05T13:21:24;5.60;;;5.10;;
2750;SDS011;1383;48.362;10.908;2023-04-05T13:23:51;5.80;;;4.97;;
2750;SDS011;1383;48.362;10.908;2023-04-05T13:26:17;5.20;;;4.80;;
2750;SDS011;1383;48.362;10.908;2023-04-05T13:28:44;6.90;;;5.60;;
2750;SDS011;1383;48.362;10.908;2023-04-05T13:31:11;4.77;;;4.37;;
2750;SDS011;1383;48.362;10.908;2023-04-05T13:33:41;5.73;;;5.33;;
2750;SDS011;1383;48.362;10.908;2023-04-05T13:36:08;5.30;;;4.80;;
2750;SDS011;1383;48.362;10.908;2023-04-05T13:38:36;5.70;;;5.20;;
2750;SDS011;1383;48.362;10.908;2023-04-05T13:41:03;5.60;;;4.90;;
2750;SDS011;1383;48.362;10.908;2023-04-05T13:43:30;5.70;;;5.20;;
2750;SDS011;1383;48.362;10.908;2023-04-05T13:45:57;5.33;;;4.83;;
2750;SDS011;1383;48.362;10.908;2023-04-05T13:48:24;6.43;;;5.27;;
2750;SDS011;1383;48.362;10.908;2023-04-05T13:50:51;4.43;;;3.90;;
2750;SDS011;1383;48.362;10.908;2023-04-05T13:53:17;6.50;;;5.90;;
2750;SDS011;1383;48.362;10.908;2023-04-05T13:55:44;6.77;;;6.17;;
2750;SDS011;1383;48.362;10.908;2023-04-05T13:58:11;5.83;;;5.27;;
2750;SDS011;1383;48.362;10.908;2023-04-05T14:00:39;6.77;;;6.00;;
2750;SDS011;1383;48.362;10.908;2023-04-05T14:03:07;6.20;;;5.67;;
2750;SDS011;1383;48.362;10.908;2023-04-05T14:05:34;15.00;;;5.37;;
2750;SDS011;1383;48.362;10.908;2023-04-05T14:08:01;6.60;;;5.50;;
2750;SDS011;1383;48.362;10.908;2023-04-05T14:10:29;5.60;;;5.10;;
2750;SDS011;1383;48.362;10.908;2023-04-05T14:12:56;5.70;;;5.20;;
2750;SDS011;1383;48.362;10.908;2023-04-05T14:15:23;7.03;;;5.33;;
2750;SDS011;1383;48.362;10.908;2023-04-05T14:17:50;5.13;;;4.10;;
2750;SDS011;1383;48.362;10.908;2023-04-05T14:20:17;6.40;;;5.80;;
2750;SDS011;1383;48.362;10.908;2023-04-05T14:22:44;8.23;;;6.03;;
2750;SDS011;1383;48.362;10.908;2023-04-05T14:25:11;7.63;;;5.83;;
2750;SDS011;1383;48.362;10.908;2023-04-05T14:27:38;6.68;;;5.65;;
2750;SDS011;1383;48.362;10.908;2023-04-05T14:30:07;5.70;;;5.22;;
2750;SDS011;1383;48.362;10.908;2023-04-05T14:32:35;6.18;;;5.57;;
2750;SDS011;1383;48.362;10.908;2023-04-05T14:35:02;5.80;;;5.30;;
2750;SDS011;1383;48.362;10.908;2023-04-05T14:37:29;6.33;;;5.73;;
2750;SDS011;1383;48.362;10.908;2023-04-05T14:39:56;5.37;;;4.97;;
2750;SDS011;1383;48.362;10.908;2023-04-05T14:42:23;8.90;;;6.23;;
2750;SDS011;1383;48.362;10.908;2023-04-05T14:45:02;6.97;;;6.03;;
2750;SDS011;1383;48.362;10.908;2023-04-05T14:47:29;6.13;;;5.53;;
2750;SDS011;1383;48.362;10.908;2023-04-05T14:49:56;8.53;;;5.47;;
2750;SDS011;1383;48.362;10.908;2023-04-05T14:52:23;6.00;;;5.27;;
2750;SDS011;1383;48.362;10.908;2023-04-05T14:54:50;9.77;;;6.50;;
2750;SDS011;1383;48.362;10.908;2023-04-05T14:57:17;6.80;;;5.23;;
2750;SDS011;1383;48.362;10.908;2023-04-05T14:59:44;7.07;;;6.37;;
2750;SDS011;1383;48.362;10.908;2023-04-05T15:02:11;7.53;;;6.20;;
2750;SDS011;1383;48.362;10.908;2023-04-05T15:04:39;5.30;;;4.77;;
2750;SDS011;1383;48.362;10.908;2023-04-05T15:07:06;5.80;;;5.30;;
2750;SDS011;1383;48.362;10.908;2023-04-05T15:09:33;10.23;;;6.43;;
2750;SDS011;1383;48.362;10.908;2023-04-05T15:12:01;6.20;;;5.67;;
2750;SDS011;1383;48.362;10.908;2023-04-05T15:14:28;6.73;;;6.13;;
2750;SDS011;1383;48.362;10.908;2023-04-05T15:16:57;5.60;;;4.73;;
2750;SDS011;1383;48.362;10.908;2023-04-05T15:19:24;5.30;;;4.50;;
2750;SDS011;1383;48.362;10.908;2023-04-05T15:21:52;7.53;;;5.63;;
2750;SDS011;1383;48.362;10.908;2023-04-05T15:24:19;5.23;;;4.83;;
2750;SDS011;1383;48.362;10.908;2023-04-05T15:26:46;10.00;;;8.50;;
2750;SDS011;1383;48.362;10.908;2023-04-05T15:29:13;8.07;;;5.70;;
2750;SDS011;1383;48.362;10.908;2023-04-05T15:31:40;5.40;;;4.90;;
2750;SDS011;1383;48.362;10.908;2023-04-05T15:34:07;5.23;;;4.73;;
2750;SDS011;1383;48.362;10.908;2023-04-05T15:36:33;7.10;;;5.93;;
2750;SDS011;1383;48.362;10.908;2023-04-05T15:39:01;6.60;;;5.93;;
2750;SDS011;1383;48.362;10.908;2023-04-05T15:41:30;6.43;;;5.87;;
2750;SDS011;1383;48.362;10.908;2023-04-05T15:43:58;10.40;;;6.47;;
2750;SDS011;1383;48.362;10.908;2023-04-05T15:46:26;6.50;;;5.90;;
2750;SDS011;1383;48.362;10.908;2023-04-05T15:48:54;7.00;;;6.40;;
2750;SDS011;1383;48.362;10.908;2023-04-05T15:51:21;7.97;;;5.70;;
2750;SDS011;1383;48.362;10.908;2023-04-05T15:53:48;6.88;;;5.90;;
2750;SDS011;1383;48.362;10.908;2023-04-05T15:56:16;6.73;;;5.60;;
2750;SDS011;1383;48.362;10.908;2023-04-05T15:58:43;5.57;;;5.17;;